Etusivu
METAR-TAF:

METAR-TAF

Lentoasemat :

Isbell Field

Fort Payne, Alabama, Yhdysvallat

Leveyspiiri: 34-28-25N, Pituuspiiri: 085-43-17W, korkeus merenpinnasta: 267 m

Tämänhetkinen sää

Tämä raportti tehtiin 33 minuuttia sitten, kello 13.15 UTC
Tuuli 3 kn kaakosta
Lämpötila 12°C
Kosteus 94%
Ilmanpaine 1019 hPa
Näkyvyys: 16.1 km
Pilvistä 700 ft:n korkeudessa
heikkoa sadetta

METAR: K4A9 181315Z AUTO 14003KT 10SM -RA OVC007 12/11 A3009 RMK AO2 T01230113

Aika: 07:48 (13:48 UTC)


TAF: puuttuu

Säähavainnot ja -ennusteet yli 4000 lentoasemalta (METAR- ja TAF-raportit).

Käytössä olevat sääasemat on merkitty karttaan keltaisilla ja punaisilla pisteillä.

Aseta hiiri pisteen päälle nähdäksesi sääaseman nimen.

Klikkaa sitten nähdäksesi säähavainnot ja -ennusteet.

Kartan vaihtaminen: klikkaa mustalla rastilla varustettuja vihreitä pisteitä, niin voit zoomata sisään; viivalla varustettua vihreää pistettä, niin voit zoomata ulos tai vihreitä nuolia, niin pääset viereisille kartoille.


METAR-TAF: